Time;durP1;ratioP1;P1;durP2;ratioP2;P2;SDS_P1;SDS_P2;PMS_P1;PMS_P2;Temp;Humidity;BMP_temperature;BMP_pressure;BME280_temperature;BME280_humidity;BME280_pressure;Samples;Min_cycle;Max_cycle;Signal;HPM_P1;HPM_P2
2022/07/23 00:00:14;;;;;;;6.35;3.70;;;14.40;99.90;;;;;;4841493;29;20069;-66
2022/07/23 00:02:40;;;;;;;4.45;3.20;;;14.40;99.90;;;;;;4830939;29;20053;-66
2022/07/23 00:05:06;;;;;;;4.40;3.53;;;14.40;99.90;;;;;;4840744;29;20064;-66
2022/07/23 00:07:32;;;;;;;4.63;3.45;;;14.40;99.90;;;;;;4841965;29;20058;-65
2022/07/23 00:09:57;;;;;;;6.05;3.55;;;14.30;99.90;;;;;;4842584;29;20057;-66
2022/07/23 00:12:23;;;;;;;5.85;3.60;;;14.20;99.90;;;;;;4840724;29;20115;-66
2022/07/23 00:14:48;;;;;;;3.83;3.33;;;14.20;99.90;;;;;;4841459;29;20049;-65
2022/07/23 00:17:14;;;;;;;4.20;2.97;;;14.20;99.90;;;;;;4840632;29;20065;-66
2022/07/23 00:19:39;;;;;;;4.63;3.60;;;14.10;99.90;;;;;;4837490;29;20065;-66
2022/07/23 00:22:05;;;;;;;5.28;3.20;;;14.10;99.90;;;;;;4845638;29;20102;-65
2022/07/23 00:24:31;;;;;;;8.30;3.60;;;14.00;99.90;;;;;;4844841;29;20065;-66
2022/07/23 00:26:56;;;;;;;3.85;3.55;;;13.90;99.90;;;;;;4839659;29;20129;-65
2022/07/23 00:29:22;;;;;;;3.65;3.35;;;13.90;99.90;;;;;;4845752;29;20492;-65
2022/07/23 00:31:47;;;;;;;3.88;3.38;;;13.80;99.90;;;;;;4844884;29;20054;-66
2022/07/23 00:34:13;;;;;;;4.32;3.50;;;13.80;99.90;;;;;;4844130;29;20086;-66
2022/07/23 00:36:39;;;;;;;4.55;3.65;;;13.70;99.90;;;;;;4845345;29;20057;-65
2022/07/23 00:39:05;;;;;;;4.68;3.30;;;13.70;99.90;;;;;;4845739;29;20050;-66
2022/07/23 00:41:30;;;;;;;5.32;3.47;;;13.70;99.90;;;;;;4844473;29;20129;-66
2022/07/23 00:44:13;;;;;;;3.85;3.10;;;13.60;99.90;;;;;;4845382;29;20050;-66
2022/07/23 00:46:45;;;;;;;4.95;3.47;;;13.50;99.90;;;;;;4844561;29;20570;-66
2022/07/23 00:49:11;;;;;;;5.13;3.13;;;13.40;99.90;;;;;;4839766;29;20062;-66
2022/07/23 00:51:37;;;;;;;3.92;3.53;;;13.40;99.90;;;;;;4841732;29;20053;-66
2022/07/23 00:54:02;;;;;;;4.45;3.30;;;13.40;99.90;;;;;;4844564;29;20102;-66
2022/07/23 00:56:29;;;;;;;3.80;3.40;;;13.30;99.90;;;;;;4844365;29;20138;-66
2022/07/23 00:58:55;;;;;;;7.47;3.90;;;13.30;99.90;;;;;;4837659;29;20058;-66
2022/07/23 01:01:21;;;;;;;6.18;3.50;;;13.20;99.90;;;;;;4828676;29;20150;-67
2022/07/23 01:03:47;;;;;;;4.15;3.30;;;13.20;99.90;;;;;;4834790;29;20140;-66
2022/07/23 01:06:13;;;;;;;4.00;3.60;;;13.20;99.90;;;;;;4843144;29;20176;-66
2022/07/23 01:08:39;;;;;;;4.00;3.30;;;13.10;99.90;;;;;;4843789;29;20111;-65
2022/07/23 01:11:05;;;;;;;9.40;4.55;;;13.10;99.90;;;;;;4844167;29;20453;-66
2022/07/23 01:13:30;;;;;;;6.18;3.95;;;13.10;99.90;;;;;;4844233;29;20064;-67
2022/07/23 01:15:56;;;;;;;5.47;4.50;;;13.10;99.90;;;;;;4845000;29;20124;-67
2022/07/23 01:18:21;;;;;;;5.38;4.35;;;13.10;99.90;;;;;;4844764;29;20053;-66
2022/07/23 01:20:47;;;;;;;4.85;4.32;;;13.00;99.90;;;;;;4840119;29;20049;-66
2022/07/23 01:23:13;;;;;;;6.10;3.97;;;13.20;99.90;;;;;;4840376;29;20060;-66
2022/07/23 01:25:48;;;;;;;7.75;4.47;;;13.00;99.90;;;;;;4843030;29;20054;-67
2022/07/23 01:28:13;;;;;;;5.60;4.40;;;13.00;99.90;;;;;;4844376;29;20452;-66
2022/07/23 01:30:39;;;;;;;5.13;4.47;;;13.00;99.90;;;;;;4842476;29;20057;-67
2022/07/23 01:33:05;;;;;;;9.45;4.63;;;13.00;99.90;;;;;;4842730;29;20085;-67
2022/07/23 01:35:30;;;;;;;5.07;3.58;;;12.70;99.90;;;;;;4844416;29;20084;-66
2022/07/23 01:37:56;;;;;;;7.05;4.57;;;12.90;99.90;;;;;;4844077;29;20057;-65
2022/07/23 01:40:21;;;;;;;6.05;4.00;;;12.90;99.90;;;;;;4843238;29;20106;-65
2022/07/23 01:42:47;;;;;;;5.68;4.72;;;12.90;99.90;;;;;;4843052;29;20064;-66
2022/07/23 01:45:13;;;;;;;4.78;3.90;;;12.80;99.90;;;;;;4844406;29;20050;-65
2022/07/23 01:47:38;;;;;;;4.30;3.90;;;12.80;99.90;;;;;;4841950;29;20419;-65
2022/07/23 01:50:04;;;;;;;4.15;3.75;;;12.80;99.90;;;;;;4842527;29;20058;-66
2022/07/23 01:52:30;;;;;;;4.60;4.20;;;12.80;99.90;;;;;;4842738;29;20058;-67
2022/07/23 01:54:55;;;;;;;5.13;4.60;;;12.80;99.90;;;;;;4841944;29;20056;-65
2022/07/23 01:57:21;;;;;;;6.60;4.57;;;12.80;99.90;;;;;;4841633;29;20062;-66
2022/07/23 01:59:46;;;;;;;6.78;5.15;;;12.80;99.90;;;;;;4842794;29;20058;-66
2022/07/23 02:02:12;;;;;;;6.57;5.47;;;12.80;99.90;;;;;;4843867;29;20089;-66
2022/07/23 02:04:37;;;;;;;7.40;5.38;;;12.70;99.90;;;;;;4844025;29;20118;-66
2022/07/23 02:07:04;;;;;;;7.10;4.95;;;12.70;99.90;;;;;;4842640;29;20058;-66
2022/07/23 02:09:30;;;;;;;8.00;4.97;;;12.70;99.90;;;;;;4842724;29;20054;-65
2022/07/23 02:11:55;;;;;;;6.72;5.03;;;12.70;99.90;;;;;;4838684;29;20046;-66
2022/07/23 02:14:21;;;;;;;6.22;5.32;;;12.70;99.90;;;;;;4841510;29;20141;-65
2022/07/23 02:16:46;;;;;;;6.18;5.10;;;12.70;99.90;;;;;;4837173;29;20062;-65
2022/07/23 02:19:12;;;;;;;7.22;5.32;;;12.70;99.90;;;;;;4843824;29;20049;-65
2022/07/23 02:21:38;;;;;;;5.65;5.03;;;12.60;99.90;;;;;;4843234;29;20149;-65
2022/07/23 02:24:04;;;;;;;5.97;4.85;;;12.60;99.90;;;;;;4843778;29;20441;-65
2022/07/23 02:26:32;;;;;;;5.68;5.07;;;12.60;99.90;;;;;;4842914;29;20436;-65
2022/07/23 02:28:57;;;;;;;5.50;4.75;;;12.50;99.90;;;;;;4843672;29;20420;-66
2022/07/23 02:31:23;;;;;;;6.32;4.65;;;12.50;99.90;;;;;;4842788;29;20058;-66
2022/07/23 02:33:48;;;;;;;7.65;4.63;;;12.40;99.90;;;;;;4836293;29;20054;-66
2022/07/23 02:36:14;;;;;;;4.57;4.15;;;12.40;99.90;;;;;;4841818;29;20053;-65
2022/07/23 02:38:40;;;;;;;5.13;4.15;;;12.40;99.90;;;;;;4843446;29;20060;-66
2022/07/23 02:41:05;;;;;;;6.20;4.40;;;12.40;99.90;;;;;;4833887;29;20088;-65
2022/07/23 02:43:31;;;;;;;8.32;5.20;;;12.30;99.90;;;;;;4842154;29;20129;-65
2022/07/23 02:45:56;;;;;;;5.70;4.05;;;12.30;99.90;;;;;;4841660;29;20164;-65
2022/07/23 02:48:22;;;;;;;5.43;4.07;;;12.30;99.90;;;;;;4843091;29;20042;-66
2022/07/23 02:50:47;;;;;;;6.05;4.25;;;12.20;99.90;;;;;;4842069;29;20057;-66
2022/07/23 02:53:13;;;;;;;5.75;3.72;;;12.20;99.90;;;;;;4843242;29;20062;-65
2022/07/23 02:55:38;;;;;;;7.22;4.72;;;12.20;99.90;;;;;;4841670;29;20085;-65
2022/07/23 02:58:04;;;;;;;6.93;4.43;;;12.20;99.90;;;;;;4842802;29;20062;-67
2022/07/23 03:00:29;;;;;;;6.22;4.10;;;12.10;99.90;;;;;;4842874;29;20511;-65
2022/07/23 03:02:55;;;;;;;5.47;4.60;;;12.10;99.90;;;;;;4855611;29;20053;-65
2022/07/23 03:05:21;;;;;;;4.63;4.00;;;12.10;99.90;;;;;;4848027;29;20083;-65
2022/07/23 03:07:46;;;;;;;5.38;3.30;;;12.10;99.90;;;;;;4842202;29;20069;-65
2022/07/23 03:10:12;;;;;;;5.03;3.53;;;12.10;99.90;;;;;;4839898;29;20050;-66
2022/07/23 03:12:37;;;;;;;3.70;3.40;;;12.00;99.90;;;;;;4842697;29;20613;-66
2022/07/23 03:15:03;;;;;;;6.18;2.85;;;12.00;99.90;;;;;;4841726;29;20054;-65
2022/07/23 03:17:29;;;;;;;2.20;2.00;;;12.00;99.90;;;;;;4840717;29;20568;-66
2022/07/23 03:19:54;;;;;;;4.20;2.63;;;11.90;99.90;;;;;;4836992;29;20050;-66
2022/07/23 03:22:20;;;;;;;4.65;2.65;;;11.90;99.90;;;;;;4841353;29;20077;-66
2022/07/23 03:24:54;;;;;;;6.00;2.80;;;11.90;99.90;;;;;;4842830;29;20168;-64
2022/07/23 03:27:21;;;;;;;3.97;2.80;;;11.90;99.90;;;;;;4839005;29;20479;-65
2022/07/23 03:29:47;;;;;;;2.97;2.63;;;11.80;99.90;;;;;;4842600;29;20079;-65
2022/07/23 03:32:12;;;;;;;2.97;2.78;;;11.80;99.90;;;;;;4841224;29;20078;-65
2022/07/23 03:34:38;;;;;;;6.75;2.90;;;11.80;99.90;;;;;;4834310;29;20062;-66
2022/07/23 03:37:04;;;;;;;4.85;2.70;;;11.70;99.90;;;;;;4839840;29;20054;-65
2022/07/23 03:43:26;;;;;;;3.78;2.85;;;11.70;99.90;;;;;;4842394;29;20065;-66
2022/07/23 03:45:58;;;;;;;4.75;3.50;;;11.70;99.90;;;;;;4842207;29;20054;-65
2022/07/23 03:48:24;;;;;;;4.30;3.40;;;11.60;99.90;;;;;;4841160;29;20045;-65
2022/07/23 03:50:53;;;;;;;4.32;3.22;;;11.60;99.90;;;;;;4841612;29;20061;-65
2022/07/23 03:53:45;;;;;;;4.50;3.30;;;11.60;99.90;;;;;;4841930;29;20602;-65
2022/07/23 03:56:37;;;;;;;6.80;3.70;;;11.70;99.90;;;;;;4840325;29;20400;-65
2022/07/23 03:59:03;;;;;;;4.03;3.10;;;11.70;99.90;;;;;;4819077;29;20092;-66
2022/07/23 04:09:21;;;;;;;4.53;2.90;;;11.60;99.90;;;;;;4805772;29;20464;-65
2022/07/23 04:11:46;;;;;;;4.78;2.50;;;11.60;99.90;;;;;;4789298;29;20050;-65
2022/07/23 04:14:12;;;;;;;3.08;2.22;;;11.60;99.90;;;;;;4798382;29;20058;-66
2022/07/23 04:16:37;;;;;;;6.63;2.50;;;11.60;99.90;;;;;;4807068;29;20054;-66
2022/07/23 04:19:04;;;;;;;5.22;2.97;;;11.60;99.90;;;;;;4824024;29;20058;-66
2022/07/23 04:21:29;;;;;;;3.03;2.72;;;11.60;99.90;;;;;;4806459;29;20103;-66
2022/07/23 04:23:55;;;;;;;4.30;2.60;;;11.60;99.90;;;;;;4824120;29;20396;-66
2022/07/23 04:26:21;;;;;;;3.80;2.53;;;11.60;99.90;;;;;;4823466;29;20077;-66
2022/07/23 04:28:46;;;;;;;3.15;2.55;;;11.70;99.90;;;;;;4823477;29;20133;-66
2022/07/23 04:31:12;;;;;;;4.25;2.88;;;11.70;99.90;;;;;;4824076;29;20053;-66
2022/07/23 04:33:38;;;;;;;3.58;2.85;;;11.70;99.90;;;;;;4823799;29;20351;-65
2022/07/23 04:36:04;;;;;;;6.00;3.08;;;11.80;99.90;;;;;;4822233;29;20125;-65
2022/07/23 04:38:29;;;;;;;3.72;2.97;;;11.80;99.90;;;;;;4823788;29;20472;-66
2022/07/23 04:40:55;;;;;;;5.18;3.42;;;11.90;99.90;;;;;;4823740;29;20457;-66
2022/07/23 04:43:20;;;;;;;4.80;3.22;;;11.90;99.90;;;;;;4823515;29;20125;-66
2022/07/23 04:45:46;;;;;;;5.43;3.40;;;12.00;99.90;;;;;;4823783;29;20086;-66
2022/07/23 04:48:11;;;;;;;3.92;3.28;;;12.10;99.90;;;;;;4806340;29;20393;-65
2022/07/23 04:50:37;;;;;;;4.15;2.70;;;12.10;99.90;;;;;;4821309;29;20061;-66
2022/07/23 04:53:03;;;;;;;4.28;3.05;;;12.20;99.90;;;;;;4823314;29;20053;-66
2022/07/23 04:55:28;;;;;;;3.80;3.40;;;12.30;99.90;;;;;;4823499;29;20105;-65
2022/07/23 04:57:54;;;;;;;3.50;3.13;;;12.40;99.90;;;;;;4828079;29;20064;-66
2022/07/23 05:00:20;;;;;;;6.50;3.63;;;12.40;99.90;;;;;;4840176;29;20054;-66
2022/07/23 05:02:45;;;;;;;5.85;3.65;;;12.50;99.90;;;;;;4841618;29;20058;-66
2022/07/23 05:05:11;;;;;;;7.28;3.70;;;12.50;99.90;;;;;;4842101;29;20050;-67
2022/07/23 05:07:36;;;;;;;4.20;3.72;;;12.60;99.90;;;;;;4844624;29;20159;-65
2022/07/23 05:10:02;;;;;;;4.90;3.83;;;12.70;99.90;;;;;;4843220;29;20065;-66
2022/07/23 05:12:28;;;;;;;6.78;4.45;;;12.80;99.90;;;;;;4844773;29;20393;-68
2022/07/23 05:14:53;;;;;;;4.40;3.72;;;12.80;99.90;;;;;;4844963;29;20099;-67
2022/07/23 05:17:19;;;;;;;5.88;3.97;;;12.90;99.90;;;;;;4844517;29;20061;-67
2022/07/23 05:19:45;;;;;;;4.50;4.05;;;13.00;99.90;;;;;;4843297;29;20129;-69
2022/07/23 05:22:10;;;;;;;5.03;4.25;;;13.00;99.90;;;;;;4842135;29;20057;-67
2022/07/23 05:24:36;;;;;;;5.05;3.80;;;13.10;99.90;;;;;;4842894;29;20060;-69
2022/07/23 05:27:01;;;;;;;5.10;3.97;;;13.10;99.90;;;;;;4844629;29;20050;-67
2022/07/23 05:29:27;;;;;;;9.13;4.35;;;13.30;99.90;;;;;;4842436;29;20050;-69
2022/07/23 05:31:52;;;;;;;8.80;4.20;;;13.30;99.90;;;;;;4843780;29;20510;-67
2022/07/23 05:34:18;;;;;;;7.88;4.22;;;13.40;99.90;;;;;;4838191;29;20062;-69
2022/07/23 05:36:44;;;;;;;5.30;3.67;;;13.40;99.90;;;;;;4839352;29;20054;-67
2022/07/23 05:39:09;;;;;;;5.85;4.30;;;13.50;99.90;;;;;;4842343;29;20507;-67
2022/07/23 05:41:35;;;;;;;6.20;3.85;;;13.60;99.90;;;;;;4844078;29;20050;-67
2022/07/23 05:44:00;;;;;;;9.30;4.72;;;13.80;99.90;;;;;;4843545;29;20132;-67
2022/07/23 05:46:26;;;;;;;5.22;3.72;;;14.60;99.90;;;;;;4841544;29;20102;-68
2022/07/23 05:48:51;;;;;;;7.43;4.28;;;15.90;99.90;;;;;;4844498;29;20126;-68
2022/07/23 05:51:22;;;;;;;5.57;3.50;;;17.00;99.90;;;;;;4824696;29;20038;-68
2022/07/23 05:53:49;;;;;;;6.20;3.88;;;17.80;99.90;;;;;;4839079;29;20148;-67
2022/07/23 05:56:15;;;;;;;4.95;3.47;;;18.60;99.90;;;;;;4837515;29;20523;-69
2022/07/23 05:58:41;;;;;;;4.28;3.80;;;19.10;99.90;;;;;;4843547;29;20058;-68
2022/07/23 06:01:06;;;;;;;6.28;3.97;;;19.70;99.90;;;;;;4841439;29;20388;-68
2022/07/23 06:03:32;;;;;;;6.97;3.80;;;20.20;99.90;;;;;;4835779;29;20062;-68
2022/07/23 06:05:57;;;;;;;4.20;3.70;;;20.50;99.90;;;;;;4820790;29;20080;-67
2022/07/23 06:08:23;;;;;;;7.75;4.00;;;21.00;99.90;;;;;;4836509;29;20087;-68
2022/07/23 06:10:49;;;;;;;5.40;3.42;;;21.10;99.90;;;;;;4842239;29;20495;-66
2022/07/23 06:13:14;;;;;;;4.55;3.42;;;21.40;99.90;;;;;;4844543;29;20062;-68
2022/07/23 06:15:40;;;;;;;4.15;3.20;;;21.40;99.90;;;;;;4838648;29;20053;-67
2022/07/23 06:18:06;;;;;;;4.40;2.90;;;21.60;99.90;;;;;;4842470;29;20099;-69
2022/07/23 06:20:31;;;;;;;4.18;2.67;;;21.80;99.90;;;;;;4839930;29;20050;-68
2022/07/23 06:22:57;;;;;;;4.22;2.50;;;21.80;99.90;;;;;;4838243;29;20061;-68
2022/07/23 06:25:22;;;;;;;4.00;2.10;;;22.10;99.90;;;;;;4841675;29;20057;-69
2022/07/23 06:27:48;;;;;;;3.00;2.40;;;22.10;99.90;;;;;;4827035;29;20510;-69
2022/07/23 06:30:16;;;;;;;4.95;2.20;;;21.90;99.90;;;;;;4838509;29;20058;-70
2022/07/23 06:32:42;;;;;;;4.35;1.90;;;22.10;99.90;;;;;;4840478;29;20126;-68
2022/07/23 06:35:08;;;;;;;3.03;2.10;;;22.10;99.90;;;;;;4841833;29;20058;-67
2022/07/23 06:37:34;;;;;;;3.35;2.10;;;21.70;99.90;;;;;;4839094;29;20400;-67
2022/07/23 06:39:59;;;;;;;3.42;1.98;;;20.70;99.90;;;;;;4837553;29;20462;-67
2022/07/23 06:42:25;;;;;;;5.53;2.42;;;19.90;99.90;;;;;;4838598;29;20525;-67
2022/07/23 06:44:50;;;;;;;2.20;2.00;;;19.40;99.90;;;;;;4841143;29;20450;-67
2022/07/23 06:47:16;;;;;;;5.32;2.10;;;18.90;99.90;;;;;;4843332;29;20109;-68
2022/07/23 06:49:41;;;;;;;3.72;1.95;;;18.70;99.90;;;;;;4840993;29;20060;-66
2022/07/23 06:52:08;;;;;;;1.95;1.70;;;18.50;99.90;;;;;;4840178;29;20527;-67
2022/07/23 06:54:33;;;;;;;2.47;1.60;;;18.40;99.90;;;;;;4843234;29;20061;-67
2022/07/23 06:56:59;;;;;;;3.92;1.55;;;18.20;99.90;;;;;;4841729;29;20081;-67
2022/07/23 06:59:24;;;;;;;4.47;1.33;;;18.20;99.90;;;;;;4841870;29;20062;-67
2022/07/23 07:01:50;;;;;;;3.03;1.40;;;18.20;99.90;;;;;;4840705;29;20060;-67
2022/07/23 07:04:16;;;;;;;2.60;1.00;;;18.10;99.90;;;;;;4841849;29;20229;-67
2022/07/23 07:06:41;;;;;;;4.93;1.55;;;18.10;99.90;;;;;;4842362;29;20137;-67
2022/07/23 07:09:07;;;;;;;3.28;1.10;;;18.20;99.90;;;;;;4842700;29;20088;-66
2022/07/23 07:11:32;;;;;;;1.27;1.05;;;18.30;99.90;;;;;;4841239;29;20058;-66
2022/07/23 07:13:58;;;;;;;2.28;1.00;;;18.30;99.90;;;;;;4842012;29;20053;-67
2022/07/23 07:16:24;;;;;;;1.63;0.90;;;18.40;99.90;;;;;;4839671;29;20042;-67
2022/07/23 07:18:49;;;;;;;1.60;0.98;;;18.50;99.90;;;;;;4840903;29;20572;-67
2022/07/23 07:21:15;;;;;;;2.00;1.08;;;18.50;99.90;;;;;;4840875;29;20057;-67
2022/07/23 07:23:40;;;;;;;2.92;1.17;;;18.50;99.90;;;;;;4840721;29;20175;-67
2022/07/23 07:26:06;;;;;;;1.67;0.95;;;18.50;99.90;;;;;;4842650;29;20058;-67
2022/07/23 07:28:32;;;;;;;2.00;0.77;;;18.50;99.90;;;;;;4840059;29;20106;-67
2022/07/23 07:30:57;;;;;;;1.20;0.80;;;18.50;99.90;;;;;;4840578;29;20045;-67
2022/07/23 07:33:23;;;;;;;1.98;0.90;;;18.60;99.90;;;;;;4842533;29;20330;-66
2022/07/23 07:35:48;;;;;;;3.30;0.98;;;18.70;99.90;;;;;;4838838;29;20057;-67
2022/07/23 07:38:14;;;;;;;3.45;0.93;;;18.70;99.90;;;;;;4841402;29;20045;-67
2022/07/23 07:40:40;;;;;;;1.45;0.80;;;18.90;99.90;;;;;;4841409;29;20060;-67
2022/07/23 07:43:05;;;;;;;1.95;0.80;;;19.00;99.90;;;;;;4842267;29;20058;-67
2022/07/23 07:45:31;;;;;;;1.05;0.68;;;19.10;99.90;;;;;;4840505;29;20088;-67
2022/07/23 07:47:57;;;;;;;1.60;0.70;;;18.90;99.90;;;;;;4841355;29;20089;-67
2022/07/23 07:50:23;;;;;;;2.20;0.70;;;19.00;99.90;;;;;;4840348;29;20126;-67
2022/07/23 07:52:48;;;;;;;1.70;0.95;;;19.10;99.90;;;;;;4823960;29;20061;-67
2022/07/23 07:55:15;;;;;;;2.10;1.00;;;19.00;99.90;;;;;;4841042;29;20407;-67
2022/07/23 07:57:41;;;;;;;1.05;0.80;;;19.00;99.90;;;;;;4839934;29;20050;-67
2022/07/23 08:00:09;;;;;;;1.70;0.70;;;18.90;99.90;;;;;;4842280;29;20054;-67
2022/07/23 08:02:45;;;;;;;0.68;0.68;;;19.10;99.90;;;;;;4840185;29;20065;-66
2022/07/23 08:05:11;;;;;;;0.95;0.63;;;19.10;99.90;;;;;;4842521;29;20065;-67
2022/07/23 08:07:38;;;;;;;0.75;0.60;;;19.10;99.90;;;;;;4840769;29;20042;-67
2022/07/23 08:10:05;;;;;;;4.10;0.70;;;19.00;99.90;;;;;;4841923;29;20583;-67
2022/07/23 08:12:52;;;;;;;2.72;0.80;;;19.20;99.90;;;;;;4839884;29;20999;-67
2022/07/23 08:15:20;;;;;;;1.70;0.80;;;19.10;99.90;;;;;;4839047;29;20046;-67
2022/07/23 08:17:47;;;;;;;1.65;0.60;;;19.20;99.90;;;;;;4840223;29;20064;-66
2022/07/23 08:20:15;;;;;;;0.93;0.45;;;19.30;99.90;;;;;;4840840;29;20415;-67
2022/07/23 08:22:55;;;;;;;1.50;0.73;;;19.50;99.90;;;;;;4841665;29;20100;-67
2022/07/23 08:25:23;;;;;;;0.57;0.50;;;19.70;99.90;;;;;;4839572;29;20069;-67
2022/07/23 08:27:50;;;;;;;2.10;0.60;;;19.90;99.90;;;;;;4841840;29;20053;-66
2022/07/23 08:30:16;;;;;;;0.80;0.57;;;19.90;99.90;;;;;;4841036;29;20054;-66
2022/07/23 08:33:00;;;;;;;2.17;0.77;;;19.90;99.90;;;;;;4825107;29;20111;-66
2022/07/23 08:35:37;;;;;;;2.50;0.60;;;19.70;99.90;;;;;;4840615;29;20041;-67
2022/07/23 08:38:07;;;;;;;1.02;0.40;;;19.50;99.90;;;;;;4840363;29;20059;-66
2022/07/23 08:40:36;;;;;;;0.88;0.60;;;19.60;99.90;;;;;;4839524;29;20058;-66
2022/07/23 08:43:07;;;;;;;0.85;0.50;;;19.60;99.90;;;;;;4844435;29;20132;-66
2022/07/23 08:45:38;;;;;;;1.08;0.60;;;19.60;99.90;;;;;;4843413;29;20061;-68
2022/07/23 08:48:07;;;;;;;0.95;0.60;;;19.50;99.90;;;;;;4845325;29;20547;-65
2022/07/23 08:50:34;;;;;;;0.80;0.50;;;19.60;99.90;;;;;;4844361;29;20054;-65
2022/07/23 08:53:01;;;;;;;1.63;0.50;;;19.70;99.90;;;;;;4844962;29;20061;-65
2022/07/23 08:55:26;;;;;;;0.95;0.50;;;19.90;99.90;;;;;;4844497;29;20096;-66
2022/07/23 08:57:53;;;;;;;1.40;0.57;;;19.90;99.90;;;;;;4844942;29;20089;-66
2022/07/23 09:00:20;;;;;;;0.98;0.70;;;20.10;99.90;;;;;;4843725;29;20063;-66
2022/07/23 09:02:46;;;;;;;1.33;0.60;;;20.20;99.90;;;;;;4845057;29;20046;-65
2022/07/23 09:05:13;;;;;;;1.67;0.70;;;20.40;99.90;;;;;;4843963;29;20054;-66
2022/07/23 09:08:07;;;;;;;1.33;0.65;;;20.60;99.90;;;;;;4844604;29;20102;-66
2022/07/23 09:10:52;;;;;;;1.02;0.68;;;20.70;99.90;;;;;;4844020;29;20092;-66
2022/07/23 09:13:48;;;;;;;2.47;0.60;;;20.90;99.90;;;;;;4844347;29;20436;-65
2022/07/23 09:16:19;;;;;;;0.40;0.40;;;20.90;99.90;;;;;;4842726;29;20080;-66
2022/07/23 09:18:53;;;;;;;4.32;0.60;;;20.90;99.90;;;;;;4827506;29;20050;-66
2022/07/23 09:21:25;;;;;;;1.00;0.50;;;20.90;99.90;;;;;;4857313;29;20093;-65
2022/07/23 09:23:58;;;;;;;2.05;0.70;;;20.90;99.90;;;;;;4841771;29;20499;-66
2022/07/23 09:26:29;;;;;;;0.77;0.55;;;20.80;99.90;;;;;;4828351;29;20085;-67
2022/07/23 09:29:00;;;;;;;0.95;0.47;;;20.90;99.90;;;;;;4843366;29;20137;-66
2022/07/23 09:31:33;;;;;;;2.40;0.82;;;20.80;99.90;;;;;;4844589;29;20057;-65
2022/07/23 09:34:20;;;;;;;0.82;0.60;;;20.80;99.90;;;;;;4841873;29;20053;-66
2022/07/23 09:36:47;;;;;;;1.08;0.57;;;20.80;99.90;;;;;;4842836;29;20058;-66
2022/07/23 09:39:14;;;;;;;0.68;0.60;;;21.00;99.90;;;;;;4842717;29;20061;-66
2022/07/23 09:41:46;;;;;;;0.77;0.60;;;21.20;99.90;;;;;;4842511;29;20053;-66
2022/07/23 09:44:18;;;;;;;1.17;0.60;;;21.20;99.90;;;;;;4841039;29;20058;-66
2022/07/23 09:46:45;;;;;;;;;;;21.20;99.90;;;;;;4826383;29;20057;-66
2022/07/23 09:49:13;;;;;;;1.85;0.70;;;21.40;99.90;;;;;;4857588;29;20362;-67
2022/07/23 09:51:51;;;;;;;1.05;0.50;;;21.60;99.90;;;;;;4835848;29;20056;-66
2022/07/23 09:54:28;;;;;;;0.75;0.50;;;21.90;99.90;;;;;;4822692;29;20057;-67
2022/07/23 09:56:55;;;;;;;0.85;0.50;;;21.90;99.90;;;;;;4843853;29;20144;-67
2022/07/23 09:59:30;;;;;;;0.50;0.50;;;21.90;99.90;;;;;;4818071;29;20062;-67
2022/07/23 10:01:56;;;;;;;0.40;0.40;;;21.90;99.90;;;;;;4836601;29;20058;-66
2022/07/23 10:04:24;;;;;;;0.90;0.50;;;21.80;99.90;;;;;;4842722;29;20559;-66
2022/07/23 10:06:53;;;;;;;1.73;0.70;;;21.60;99.90;;;;;;4822895;29;20464;-67
2022/07/23 10:09:23;;;;;;;2.00;0.90;;;21.50;99.90;;;;;;4824022;29;20070;-66
2022/07/23 10:11:50;;;;;;;1.58;0.70;;;21.30;99.90;;;;;;4825886;29;20188;-66
2022/07/23 10:14:17;;;;;;;1.15;0.50;;;21.10;99.90;;;;;;4824050;29;20119;-67
2022/07/23 10:16:43;;;;;;;0.88;0.60;;;21.00;99.90;;;;;;4823306;29;20054;-67
2022/07/23 10:19:09;;;;;;;0.82;0.60;;;21.10;99.90;;;;;;4838581;29;20062;-67
2022/07/23 10:21:41;;;;;;;1.67;0.80;;;21.30;99.90;;;;;;4824999;29;20054;-67
2022/07/23 10:24:15;;;;;;;0.82;0.75;;;21.40;99.90;;;;;;4821675;29;20065;-67
2022/07/23 10:26:59;;;;;;;0.68;0.68;;;21.60;99.90;;;;;;4809206;29;20054;-67
2022/07/23 10:29:45;;;;;;;2.42;0.55;;;21.80;99.90;;;;;;4805721;29;20050;-67
2022/07/23 10:32:29;;;;;;;1.08;1.00;;;22.10;99.90;;;;;;4807213;29;20061;-66
2022/07/23 10:35:03;;;;;;;1.17;0.60;;;22.30;99.20;;;;;;4824661;29;20484;-66
2022/07/23 10:37:36;;;;;;;0.57;0.55;;;22.50;99.90;;;;;;4834862;29;20103;-66
2022/07/23 10:40:30;;;;;;;0.80;0.75;;;22.60;99.90;;;;;;4843373;29;20415;-66
2022/07/23 10:43:00;;;;;;;0.70;0.52;;;22.50;97.10;;;;;;4836585;29;20062;-66
2022/07/23 10:45:39;;;;;;;1.40;0.90;;;22.40;99.90;;;;;;4807401;29;20054;-66
2022/07/23 10:48:14;;;;;;;2.17;0.77;;;22.30;99.70;;;;;;4808372;29;20117;-66
2022/07/23 10:50:41;;;;;;;1.85;0.80;;;22.20;97.00;;;;;;4840573;29;20519;-66
2022/07/23 10:53:07;;;;;;;0.70;0.70;;;22.30;99.90;;;;;;4814639;29;20058;-66
2022/07/23 10:55:32;;;;;;;2.30;1.10;;;22.20;99.90;;;;;;4797433;29;20487;-66
2022/07/23 10:58:00;;;;;;;1.33;0.90;;;22.10;99.90;;;;;;4836356;29;20054;-66
2022/07/23 11:00:28;;;;;;;0.75;0.60;;;22.20;99.90;;;;;;4841819;29;20064;-66
2022/07/23 11:02:56;;;;;;;2.15;0.75;;;22.40;99.90;;;;;;4840953;29;20103;-66
2022/07/23 11:05:24;;;;;;;0.93;0.70;;;22.40;99.90;;;;;;4841985;29;20494;-66
2022/07/23 11:08:10;;;;;;;1.10;0.60;;;22.40;99.40;;;;;;4841533;29;20062;-66
2022/07/23 11:10:42;;;;;;;0.70;0.70;;;22.40;99.90;;;;;;4837669;29;20452;-66
2022/07/23 11:13:22;;;;;;;;;;;22.40;99.90;;;;;;4825206;29;20089;-66
2022/07/23 11:16:15;;;;;;;1.35;0.80;;;22.60;99.90;;;;;;4840108;29;20376;-66
2022/07/23 11:18:43;;;;;;;1.60;0.80;;;22.70;97.40;;;;;;4842922;29;20072;-65
2022/07/23 11:21:26;;;;;;;1.35;0.90;;;22.60;99.70;;;;;;4841311;29;20058;-66
2022/07/23 11:23:58;;;;;;;1.10;1.00;;;22.70;97.50;;;;;;4841810;29;20408;-66
2022/07/23 11:26:45;;;;;;;1.33;1.23;;;22.80;99.90;;;;;;4840682;29;20061;-66
2022/07/23 11:29:40;;;;;;;1.00;0.90;;;22.90;98.30;;;;;;4841691;29;20572;-67
2022/07/23 11:32:18;;;;;;;1.20;1.00;;;23.00;98.40;;;;;;4820463;29;20069;-66
2022/07/23 11:34:49;;;;;;;2.60;1.10;;;23.00;98.60;;;;;;4826113;29;20061;-66
2022/07/23 11:37:38;;;;;;;1.35;1.08;;;22.90;99.90;;;;;;4838486;29;20464;-66
2022/07/23 11:40:10;;;;;;;2.13;1.38;;;22.70;94.20;;;;;;4838995;29;20058;-66
2022/07/23 11:42:37;;;;;;;1.30;1.10;;;22.50;99.40;;;;;;4841436;29;20135;-66
2022/07/23 11:45:05;;;;;;;1.08;0.98;;;22.50;99.90;;;;;;4841616;29;20076;-66
2022/07/23 11:47:30;;;;;;;1.95;1.17;;;22.60;99.90;;;;;;4842420;29;20050;-66
2022/07/23 11:50:01;;;;;;;1.40;1.25;;;22.80;99.90;;;;;;4825413;29;20492;-66
2022/07/23 11:52:29;;;;;;;1.25;1.15;;;22.60;99.90;;;;;;4840419;29;20053;-66
2022/07/23 11:54:58;;;;;;;1.05;0.95;;;22.60;99.90;;;;;;4840236;29;20091;-66
2022/07/23 11:57:35;;;;;;;2.20;1.20;;;22.60;99.90;;;;;;4840398;29;20410;-66
2022/07/23 12:00:06;;;;;;;1.20;1.08;;;22.80;99.90;;;;;;4842133;29;20053;-66
2022/07/23 12:02:32;;;;;;;1.90;1.23;;;23.00;99.90;;;;;;4840141;29;20414;-66
2022/07/23 12:04:57;;;;;;;1.70;1.20;;;23.10;99.90;;;;;;4838643;29;20125;-66
2022/07/23 12:07:31;;;;;;;2.55;1.20;;;23.10;99.90;;;;;;4839906;29;20407;-66
2022/07/23 12:09:58;;;;;;;1.52;1.13;;;23.00;99.90;;;;;;4842309;29;20073;-66
2022/07/23 12:12:25;;;;;;;2.53;1.20;;;22.80;99.90;;;;;;4841138;29;20058;-67
2022/07/23 12:14:56;;;;;;;1.02;0.98;;;22.70;99.90;;;;;;4840667;29;20110;-66
2022/07/23 12:17:33;;;;;;;1.50;1.40;;;22.60;99.90;;;;;;4838972;29;20058;-66
2022/07/23 12:19:59;;;;;;;5.50;1.30;;;22.80;99.90;;;;;;4842813;29;20141;-66
2022/07/23 12:22:27;;;;;;;1.23;1.00;;;23.10;99.90;;;;;;4841252;29;20058;-67
2022/07/23 12:24:58;;;;;;;2.05;1.25;;;23.30;99.90;;;;;;4843272;29;20126;-67
2022/07/23 12:27:25;;;;;;;;;;;23.40;99.90;;;;;;4841619;29;20088;-66
2022/07/23 12:29:50;;;;;;;2.33;1.25;;;23.20;98.10;;;;;;4842716;29;19932;-66
2022/07/23 12:32:21;;;;;;;1.80;1.23;;;23.00;99.90;;;;;;4843620;29;20064;-65
2022/07/23 12:34:50;;;;;;;2.28;1.48;;;22.70;99.90;;;;;;4842328;29;20134;-66
2022/07/23 12:37:31;;;;;;;1.40;1.30;;;22.70;99.90;;;;;;4842696;29;20054;-66
2022/07/23 12:39:57;;;;;;;1.92;1.35;;;22.50;99.90;;;;;;4843548;29;20054;-65
2022/07/23 12:42:24;;;;;;;2.17;1.35;;;22.70;99.90;;;;;;4844405;29;20065;-66
2022/07/23 12:45:11;;;;;;;2.28;1.35;;;22.80;99.90;;;;;;4841630;29;20472;-66
2022/07/23 12:47:55;;;;;;;2.45;1.30;;;22.70;99.90;;;;;;4845057;29;20606;-66
2022/07/23 12:50:37;;;;;;;2.17;1.17;;;22.60;99.90;;;;;;4841237;29;20114;-67
2022/07/23 12:53:16;;;;;;;1.50;1.40;;;22.50;99.90;;;;;;4843568;29;20058;-66
2022/07/23 12:55:43;;;;;;;1.45;1.30;;;22.50;99.90;;;;;;4843715;29;20145;-66
2022/07/23 12:58:11;;;;;;;1.40;1.30;;;22.40;99.90;;;;;;4836697;29;20069;-67
2022/07/23 13:01:01;;;;;;;1.73;1.30;;;22.50;99.90;;;;;;4810183;29;20104;-65
2022/07/23 13:03:41;;;;;;;2.60;1.40;;;22.50;99.90;;;;;;4823647;29;20509;-66
2022/07/23 13:06:09;;;;;;;1.70;1.60;;;22.80;99.90;;;;;;4828194;29;20061;-65